Time;durP1;ratioP1;P1;durP2;ratioP2;P2;SDS_P1;SDS_P2;PMS_P1;PMS_P2;Temp;Humidity;BMP_temperature;BMP_pressure;BME280_temperature;BME280_humidity;BME280_pressure;Samples;Min_cycle;Max_cycle;Signal;HPM_P1;HPM_P2
2022/10/29 00:02:04;;;;;;;12.07;4.13;;;12.00;99.90;;;;;;4968784;28;20533;-83
2022/10/29 00:04:30;;;;;;;10.18;3.55;;;12.00;99.90;;;;;;4945574;28;20066;-83
2022/10/29 00:06:56;;;;;;;9.57;4.07;;;12.00;99.90;;;;;;4968770;28;20050;-82
2022/10/29 00:09:21;;;;;;;9.80;4.22;;;12.00;99.90;;;;;;4968007;28;20089;-83
2022/10/29 00:11:47;;;;;;;9.77;4.45;;;11.90;99.90;;;;;;4968335;28;20055;-83
2022/10/29 00:14:12;;;;;;;13.68;4.35;;;12.00;99.90;;;;;;4968436;28;20052;-83
2022/10/29 00:16:38;;;;;;;11.32;4.20;;;12.10;99.90;;;;;;4968136;28;20043;-83
2022/10/29 00:19:05;;;;;;;7.05;3.75;;;12.30;99.90;;;;;;4960244;28;20050;-83
2022/10/29 00:21:31;;;;;;;8.70;3.67;;;11.90;99.90;;;;;;4950199;28;20039;-83
2022/10/29 00:23:57;;;;;;;12.40;3.80;;;11.90;99.90;;;;;;4949115;29;20070;-83
2022/10/29 00:26:23;;;;;;;9.70;3.85;;;11.90;99.90;;;;;;4951160;28;20591;-83
2022/10/29 00:28:54;;;;;;;11.98;4.20;;;11.90;99.90;;;;;;4967603;28;20043;-82
2022/10/29 00:31:23;;;;;;;10.50;4.68;;;11.90;99.90;;;;;;4967622;28;20051;-83
2022/10/29 00:33:49;;;;;;;13.73;5.30;;;11.90;99.90;;;;;;4967089;28;20050;-83
2022/10/29 00:36:17;;;;;;;11.10;4.43;;;11.90;99.90;;;;;;4969595;28;20058;-82
2022/10/29 00:38:43;;;;;;;12.35;4.30;;;11.90;99.90;;;;;;4969654;28;20078;-82
2022/10/29 00:41:15;;;;;;;7.57;4.25;;;12.20;99.90;;;;;;4968981;28;20432;-82
2022/10/29 00:43:48;;;;;;;11.65;4.25;;;11.90;99.90;;;;;;4967870;28;20055;-83
2022/10/29 00:46:27;;;;;;;16.75;4.47;;;11.80;99.90;;;;;;4951389;28;20049;-82
2022/10/29 00:48:55;;;;;;;14.75;4.70;;;11.80;99.90;;;;;;4957999;28;20043;-82
2022/10/29 00:51:21;;;;;;;11.05;4.63;;;11.80;99.90;;;;;;4952325;29;20413;-83
2022/10/29 00:53:54;;;;;;;9.43;4.18;;;11.80;99.90;;;;;;4951722;29;20605;-83
2022/10/29 00:56:22;;;;;;;13.07;4.57;;;11.80;99.90;;;;;;4968578;28;20367;-82
2022/10/29 00:58:48;;;;;;;11.63;4.43;;;11.90;99.90;;;;;;4971216;28;20110;-82
2022/10/29 01:01:14;;;;;;;11.43;4.97;;;11.70;99.90;;;;;;4971655;28;20538;-83
2022/10/29 01:03:40;;;;;;;12.20;4.57;;;11.60;99.90;;;;;;4941457;29;20050;-82
2022/10/29 01:06:07;;;;;;;15.32;5.10;;;11.60;99.90;;;;;;4969859;28;20038;-82
2022/10/29 01:08:32;;;;;;;9.40;4.63;;;11.60;99.90;;;;;;4961147;28;20038;-82
2022/10/29 01:11:27;;;;;;;13.70;4.35;;;11.60;99.90;;;;;;4971210;28;20054;-82
2022/10/29 01:14:17;;;;;;;14.20;4.32;;;11.60;99.90;;;;;;4955134;28;20046;-83
2022/10/29 01:16:56;;;;;;;18.27;4.47;;;11.50;99.90;;;;;;4954900;28;20090;-82
2022/10/29 01:19:32;;;;;;;8.27;3.88;;;11.90;99.90;;;;;;4970173;28;20046;-82
2022/10/29 01:22:38;;;;;;;9.75;4.45;;;11.40;99.90;;;;;;4969164;28;20594;-82
2022/10/29 01:25:55;;;;;;;12.23;4.57;;;11.30;99.90;;;;;;4971322;28;20051;-83
2022/10/29 01:28:59;;;;;;;9.07;4.47;;;11.30;99.90;;;;;;4954172;28;20054;-82
2022/10/29 01:31:34;;;;;;;11.27;4.63;;;11.30;99.90;;;;;;4951619;29;20122;-82
2022/10/29 01:34:19;;;;;;;12.45;4.60;;;11.20;99.90;;;;;;4954214;28;20074;-83
2022/10/29 01:37:06;;;;;;;9.10;4.03;;;11.20;99.90;;;;;;4969958;28;20043;-83
2022/10/29 01:40:07;;;;;;;10.80;4.30;;;11.20;99.90;;;;;;4954627;28;20100;-82
2022/10/29 01:42:46;;;;;;;10.45;4.13;;;11.10;99.90;;;;;;4970549;28;20063;-82
2022/10/29 01:45:38;;;;;;;15.13;5.10;;;11.00;99.90;;;;;;4970821;28;20070;-82
2022/10/29 01:48:17;;;;;;;;;;;10.90;99.90;;;;;;4954632;28;20497;-82
2022/10/29 01:50:48;;;;;;;12.95;4.63;;;10.90;99.90;;;;;;4950927;28;19927;-82
2022/10/29 01:53:13;;;;;;;11.98;5.05;;;10.90;99.90;;;;;;4955819;28;20089;-82
2022/10/29 01:55:39;;;;;;;8.25;4.80;;;10.90;99.90;;;;;;4953670;28;20074;-82
2022/10/29 01:58:05;;;;;;;9.30;5.10;;;10.90;99.90;;;;;;4969163;28;20078;-82
2022/10/29 02:01:03;;;;;;;14.35;5.82;;;10.90;99.90;;;;;;4969917;28;20797;-82
2022/10/29 02:03:56;;;;;;;9.13;5.10;;;10.90;99.90;;;;;;4968031;28;20062;-82
2022/10/29 02:06:34;;;;;;;10.52;4.50;;;10.90;99.90;;;;;;4971162;28;20648;-82
2022/10/29 02:09:19;;;;;;;11.75;4.50;;;10.90;99.90;;;;;;4942517;29;20039;-82
2022/10/29 02:11:55;;;;;;;11.35;5.20;;;10.80;99.90;;;;;;4966758;28;20516;-82
2022/10/29 02:14:39;;;;;;;8.70;5.07;;;10.90;99.90;;;;;;4968701;28;20050;-82
2022/10/29 02:17:05;;;;;;;16.38;6.38;;;10.80;99.90;;;;;;4970397;28;20102;-82
2022/10/29 02:19:32;;;;;;;14.85;5.97;;;10.70;99.90;;;;;;4953475;28;20050;-82
2022/10/29 02:21:58;;;;;;;24.60;6.22;;;10.80;99.90;;;;;;4969832;28;20433;-82
2022/10/29 02:24:24;;;;;;;14.68;5.80;;;10.70;99.90;;;;;;4970050;28;20047;-82
2022/10/29 02:26:50;;;;;;;15.20;6.43;;;10.70;99.90;;;;;;4969577;28;20134;-82
2022/10/29 02:29:16;;;;;;;14.35;5.75;;;10.70;99.90;;;;;;4964825;28;20043;-82
2022/10/29 02:31:42;;;;;;;16.02;6.32;;;10.70;99.90;;;;;;4950555;29;20176;-82
2022/10/29 02:34:07;;;;;;;21.65;6.70;;;10.70;99.90;;;;;;4950289;28;20046;-82
2022/10/29 02:36:33;;;;;;;25.08;7.13;;;10.70;99.90;;;;;;4951514;28;20075;-82
2022/10/29 02:38:58;;;;;;;23.65;7.10;;;10.70;99.90;;;;;;4950711;29;20055;-81
2022/10/29 02:41:24;;;;;;;18.65;6.95;;;10.70;99.90;;;;;;4950037;29;20043;-82
2022/10/29 02:43:49;;;;;;;19.30;7.45;;;10.70;99.90;;;;;;4967027;28;20571;-82
2022/10/29 02:46:17;;;;;;;18.25;7.07;;;10.70;99.90;;;;;;4953288;28;20050;-82
2022/10/29 02:48:43;;;;;;;18.30;6.90;;;10.70;99.90;;;;;;4970074;28;20050;-82
2022/10/29 02:51:10;;;;;;;20.60;7.10;;;10.60;99.90;;;;;;4967797;28;20617;-82
2022/10/29 02:53:36;;;;;;;16.60;6.70;;;10.60;99.90;;;;;;4969114;28;20170;-82
2022/10/29 02:56:02;;;;;;;18.63;6.65;;;10.60;99.90;;;;;;4953390;28;20138;-82
2022/10/29 02:58:28;;;;;;;9.68;5.60;;;10.60;99.90;;;;;;4967980;28;20063;-82
2022/10/29 03:00:53;;;;;;;13.95;6.53;;;10.60;99.90;;;;;;4968063;28;20097;-82
2022/10/29 03:03:19;;;;;;;14.57;6.18;;;10.50;99.90;;;;;;4969407;28;20054;-82
2022/10/29 03:05:45;;;;;;;23.35;6.30;;;10.50;99.90;;;;;;4972679;28;20058;-82
2022/10/29 03:08:10;;;;;;;31.27;7.30;;;10.50;99.90;;;;;;4987145;28;20042;-82
2022/10/29 03:10:39;;;;;;;11.10;5.60;;;11.00;99.90;;;;;;4967805;28;20078;-82
2022/10/29 03:13:05;;;;;;;31.42;7.22;;;10.60;99.90;;;;;;4951145;28;20046;-82
2022/10/29 03:15:30;;;;;;;22.27;6.03;;;10.60;99.90;;;;;;4968799;28;20046;-82
2022/10/29 03:17:56;;;;;;;41.85;7.10;;;10.60;99.90;;;;;;4969304;28;20133;-82
2022/10/29 03:20:29;;;;;;;31.17;6.93;;;10.60;99.90;;;;;;4953003;28;20043;-82
2022/10/29 03:22:54;;;;;;;22.10;6.43;;;10.90;99.90;;;;;;4968638;28;20387;-82
2022/10/29 03:25:20;;;;;;;18.42;6.47;;;10.70;99.90;;;;;;4969154;28;20057;-82
2022/10/29 03:27:45;;;;;;;24.10;6.20;;;10.70;99.90;;;;;;4954737;28;20573;-82
2022/10/29 03:30:13;;;;;;;17.42;6.90;;;10.70;99.90;;;;;;4965857;28;20050;-82
2022/10/29 03:32:40;;;;;;;32.25;7.30;;;10.70;99.90;;;;;;4970252;28;20039;-82
2022/10/29 03:35:06;;;;;;;24.92;6.50;;;10.70;99.90;;;;;;4969857;28;20050;-82
2022/10/29 03:37:32;;;;;;;12.80;6.00;;;10.80;99.90;;;;;;4968722;28;20473;-82
2022/10/29 03:39:58;;;;;;;12.20;6.07;;;10.80;99.90;;;;;;4967410;28;20046;-82
2022/10/29 03:42:23;;;;;;;32.05;7.38;;;10.80;99.90;;;;;;4955749;28;20098;-82
2022/10/29 03:44:49;;;;;;;23.58;6.57;;;10.90;99.90;;;;;;4966395;28;20101;-82
2022/10/29 03:47:15;;;;;;;19.17;7.13;;;10.90;99.90;;;;;;4953008;28;20502;-82
2022/10/29 03:49:40;;;;;;;26.55;6.70;;;10.90;99.90;;;;;;4952339;28;20404;-82
2022/10/29 03:52:06;;;;;;;35.22;9.05;;;10.90;99.90;;;;;;4951629;28;20126;-82
2022/10/29 03:54:31;;;;;;;30.33;7.07;;;10.90;99.90;;;;;;4969251;28;20046;-82
2022/10/29 03:56:57;;;;;;;18.55;6.65;;;11.00;99.90;;;;;;4968563;28;20057;-82
2022/10/29 03:59:25;;;;;;;14.98;6.72;;;11.00;99.90;;;;;;4967787;28;20129;-82
2022/10/29 04:01:51;;;;;;;17.83;6.90;;;11.00;99.90;;;;;;4968338;28;20138;-82
2022/10/29 04:04:16;;;;;;;10.90;6.65;;;11.00;99.90;;;;;;4967467;28;20069;-82
2022/10/29 04:06:42;;;;;;;13.60;6.55;;;11.00;99.90;;;;;;4967657;28;20054;-82
2022/10/29 04:09:08;;;;;;;11.68;6.80;;;11.10;99.90;;;;;;4952299;28;20086;-82
2022/10/29 04:11:33;;;;;;;11.25;6.65;;;11.10;99.90;;;;;;4950866;28;20042;-82
2022/10/29 04:13:59;;;;;;;12.93;6.57;;;11.20;99.90;;;;;;4968127;28;20053;-82
2022/10/29 04:16:24;;;;;;;17.40;6.50;;;11.20;99.90;;;;;;4967469;28;20535;-82
2022/10/29 04:18:51;;;;;;;14.85;8.02;;;11.20;99.90;;;;;;4963673;28;20039;-82
2022/10/29 04:21:17;;;;;;;21.33;8.00;;;11.30;99.90;;;;;;4950068;28;20500;-82
2022/10/29 04:23:42;;;;;;;15.68;7.57;;;11.20;99.90;;;;;;4951875;29;20047;-82
2022/10/29 04:26:08;;;;;;;10.30;6.78;;;11.30;99.90;;;;;;4941696;28;20123;-82
2022/10/29 04:28:34;;;;;;;13.52;8.02;;;11.40;99.90;;;;;;4970805;28;20133;-82
2022/10/29 04:31:08;;;;;;;11.20;6.95;;;11.40;99.90;;;;;;4955315;28;20061;-82
2022/10/29 04:33:34;;;;;;;11.05;6.65;;;11.40;99.90;;;;;;4972194;28;20404;-82
2022/10/29 04:35:59;;;;;;;12.93;7.28;;;11.60;99.90;;;;;;4965279;28;20046;-82
2022/10/29 04:38:25;;;;;;;14.88;8.00;;;11.50;99.90;;;;;;4952941;28;20043;-82
2022/10/29 04:40:50;;;;;;;10.70;6.90;;;11.70;99.90;;;;;;4957227;28;20065;-82
2022/10/29 04:43:16;;;;;;;16.95;7.55;;;11.50;99.90;;;;;;4954604;28;20035;-82
2022/10/29 04:45:42;;;;;;;12.70;7.93;;;11.50;99.90;;;;;;4971317;28;20061;-82
2022/10/29 04:48:08;;;;;;;16.92;8.32;;;11.60;99.90;;;;;;4970487;28;20064;-82
2022/10/29 04:50:37;;;;;;;20.42;9.45;;;11.60;99.90;;;;;;4963238;28;20050;-82
2022/10/29 04:53:05;;;;;;;14.02;8.48;;;11.60;99.90;;;;;;4970253;28;20401;-82
2022/10/29 04:55:30;;;;;;;15.77;9.10;;;11.60;99.90;;;;;;4972163;28;20039;-82
2022/10/29 04:57:56;;;;;;;18.75;9.32;;;11.60;99.90;;;;;;4953738;28;20076;-82
2022/10/29 05:00:23;;;;;;;16.45;8.88;;;11.90;99.90;;;;;;4969786;28;20039;-82
2022/10/29 05:02:50;;;;;;;15.32;8.73;;;11.70;99.90;;;;;;4954189;28;20497;-82
2022/10/29 05:05:16;;;;;;;14.45;8.90;;;11.70;99.90;;;;;;4971056;28;20060;-82
2022/10/29 05:07:42;;;;;;;17.08;9.90;;;11.70;99.90;;;;;;4962241;28;20129;-82
2022/10/29 05:10:11;;;;;;;14.05;9.20;;;11.70;99.90;;;;;;4935941;29;20135;-82
2022/10/29 05:12:37;;;;;;;18.40;10.27;;;11.80;99.90;;;;;;4960665;28;20042;-82
2022/10/29 05:15:03;;;;;;;15.68;8.70;;;11.80;99.90;;;;;;4954553;28;20050;-82
2022/10/29 05:17:29;;;;;;;18.27;9.57;;;11.80;99.90;;;;;;4972420;28;20043;-83
2022/10/29 05:19:55;;;;;;;19.05;10.48;;;11.80;99.90;;;;;;4970802;28;20051;-83
2022/10/29 05:22:20;;;;;;;21.90;10.02;;;11.90;99.90;;;;;;4969286;28;20412;-83
2022/10/29 05:24:46;;;;;;;16.35;9.77;;;11.90;99.90;;;;;;4970809;28;20062;-83
2022/10/29 05:27:14;;;;;;;17.40;9.85;;;11.90;99.90;;;;;;4953388;28;20051;-80
2022/10/29 05:29:40;;;;;;;17.58;10.18;;;11.90;99.90;;;;;;4969596;28;20161;-82
2022/10/29 05:32:05;;;;;;;21.75;11.02;;;11.90;99.90;;;;;;4970629;28;20047;-82
2022/10/29 05:34:31;;;;;;;22.23;11.30;;;11.90;99.90;;;;;;4953867;28;20062;-83
2022/10/29 05:36:56;;;;;;;30.15;12.00;;;11.90;99.90;;;;;;4968768;28;20053;-82
2022/10/29 05:39:22;;;;;;;23.05;11.40;;;12.00;99.90;;;;;;4969505;28;20054;-81
2022/10/29 05:41:48;;;;;;;28.83;12.55;;;12.00;99.90;;;;;;4971128;28;20069;-81
2022/10/29 05:44:13;;;;;;;36.88;12.50;;;12.00;99.90;;;;;;4970718;28;20043;-83
2022/10/29 05:46:40;;;;;;;26.45;12.45;;;;;;;;;;4954161;28;20121;-81
2022/10/29 05:49:05;;;;;;;40.30;12.80;;;12.00;99.90;;;;;;4947682;29;20043;-81
2022/10/29 05:51:31;;;;;;;45.38;14.60;;;12.10;99.90;;;;;;4956460;28;20042;-81
2022/10/29 05:53:56;;;;;;;46.42;14.00;;;12.00;99.90;;;;;;4963789;28;20053;-81
2022/10/29 05:56:22;;;;;;;66.43;16.30;;;12.10;99.90;;;;;;4954307;28;20066;-81
2022/10/29 05:58:49;;;;;;;95.78;18.63;;;12.10;99.90;;;;;;4950206;28;20075;-81
2022/10/29 06:01:18;;;;;;;46.67;13.75;;;12.10;99.90;;;;;;4968922;28;20043;-81
2022/10/29 06:03:44;;;;;;;64.30;17.10;;;12.10;99.90;;;;;;4962636;28;20086;-81
2022/10/29 06:06:10;;;;;;;32.42;12.48;;;12.00;99.90;;;;;;4957405;28;20043;-81
2022/10/29 06:08:35;;;;;;;33.88;12.48;;;12.00;99.90;;;;;;4969856;28;20047;-81
2022/10/29 06:11:02;;;;;;;62.65;17.52;;;12.00;99.90;;;;;;4969610;28;20050;-81
2022/10/29 06:13:29;;;;;;;27.40;12.68;;;12.00;99.90;;;;;;4969190;28;20057;-81
2022/10/29 06:15:57;;;;;;;28.60;12.98;;;12.00;99.90;;;;;;4960377;28;20134;-81
2022/10/29 06:18:23;;;;;;;41.42;14.30;;;12.00;99.90;;;;;;4950267;29;20347;-82
2022/10/29 06:20:49;;;;;;;37.92;14.48;;;12.00;99.90;;;;;;4949894;29;20066;-82
2022/10/29 06:23:14;;;;;;;74.03;17.95;;;12.00;99.90;;;;;;4934273;29;20098;-82
2022/10/29 06:25:40;;;;;;;61.25;16.45;;;12.50;99.90;;;;;;4934293;29;20074;-82
2022/10/29 06:28:08;;;;;;;46.22;15.02;;;12.00;99.90;;;;;;4949763;28;20114;-83
2022/10/29 06:30:35;;;;;;;94.30;19.63;;;12.00;99.90;;;;;;4950254;29;20043;-82
2022/10/29 06:33:02;;;;;;;59.65;16.73;;;12.00;99.90;;;;;;4949574;28;20098;-82
2022/10/29 06:35:28;;;;;;;53.70;16.20;;;12.00;99.90;;;;;;4950237;29;20505;-82
2022/10/29 06:37:54;;;;;;;70.80;17.85;;;12.20;99.90;;;;;;4950069;29;20414;-82
2022/10/29 06:40:20;;;;;;;60.35;16.60;;;12.00;99.90;;;;;;4949779;29;20054;-81
2022/10/29 06:42:45;;;;;;;78.00;18.70;;;12.60;99.90;;;;;;4949142;28;20055;-82
2022/10/29 06:45:12;;;;;;;27.48;14.32;;;12.00;99.90;;;;;;4949731;28;20062;-82
2022/10/29 06:47:42;;;;;;;39.08;14.55;;;12.00;99.90;;;;;;4951975;28;20045;-82
2022/10/29 06:50:09;;;;;;;58.83;17.45;;;12.00;99.90;;;;;;4949936;29;20043;-82
2022/10/29 06:52:35;;;;;;;77.18;18.92;;;12.20;99.90;;;;;;4951034;28;20039;-81
2022/10/29 06:55:01;;;;;;;46.25;17.00;;;12.00;99.90;;;;;;4950368;28;20047;-81
2022/10/29 06:57:30;;;;;;;50.25;15.93;;;12.00;99.90;;;;;;4967671;28;20050;-81
2022/10/29 06:59:56;;;;;;;36.03;15.02;;;12.00;99.90;;;;;;4970297;28;20054;-82
2022/10/29 07:02:22;;;;;;;32.63;15.45;;;12.00;99.90;;;;;;4952957;28;20094;-81
2022/10/29 07:04:48;;;;;;;43.90;16.10;;;12.10;99.90;;;;;;4968935;28;20047;-82
2022/10/29 07:07:14;;;;;;;33.55;16.05;;;12.10;99.90;;;;;;4970218;28;20049;-81
2022/10/29 07:09:41;;;;;;;32.08;13.88;;;12.40;99.90;;;;;;4965647;28;20140;-81
2022/10/29 07:12:08;;;;;;;26.92;15.80;;;12.10;99.90;;;;;;4973061;28;20093;-82
2022/10/29 07:14:33;;;;;;;33.17;16.58;;;12.20;99.90;;;;;;4967901;28;20050;-82
2022/10/29 07:16:59;;;;;;;23.88;14.68;;;12.20;99.90;;;;;;4968617;28;20480;-82
2022/10/29 07:19:24;;;;;;;20.40;13.50;;;12.20;99.90;;;;;;4967876;28;20389;-80
2022/10/29 07:21:50;;;;;;;24.67;15.85;;;12.20;99.90;;;;;;4963391;28;20161;-81
2022/10/29 07:24:18;;;;;;;22.67;14.48;;;12.20;99.90;;;;;;4951568;28;20489;-81
2022/10/29 07:26:44;;;;;;;25.48;15.48;;;12.30;99.90;;;;;;4966748;28;20130;-81
2022/10/29 07:29:09;;;;;;;29.23;15.93;;;12.30;99.90;;;;;;4968680;28;20121;-80
2022/10/29 07:31:35;;;;;;;24.02;16.35;;;12.30;99.90;;;;;;4967941;28;20050;-81
2022/10/29 07:34:01;;;;;;;21.85;13.98;;;12.40;99.90;;;;;;4968459;28;20046;-81
2022/10/29 07:36:29;;;;;;;20.42;12.88;;;12.40;99.90;;;;;;4967727;28;20050;-81
2022/10/29 07:38:54;;;;;;;26.83;15.65;;;12.50;99.90;;;;;;4968678;28;20495;-81
2022/10/29 07:41:20;;;;;;;21.08;13.63;;;12.40;99.90;;;;;;4967969;28;20121;-81
2022/10/29 07:43:45;;;;;;;26.27;15.30;;;12.70;99.90;;;;;;4968153;28;20109;-81
2022/10/29 07:46:11;;;;;;;22.80;14.00;;;12.40;99.90;;;;;;4968216;28;20493;-81
2022/10/29 07:48:37;;;;;;;21.73;14.68;;;12.50;99.90;;;;;;4968395;28;20050;-81
2022/10/29 07:51:03;;;;;;;26.50;15.02;;;12.50;99.90;;;;;;4959701;28;20047;-81
2022/10/29 07:53:30;;;;;;;21.83;14.45;;;12.60;99.90;;;;;;4949168;29;20412;-82
2022/10/29 07:55:56;;;;;;;21.27;14.20;;;12.60;99.90;;;;;;4948119;28;20067;-82
2022/10/29 07:58:22;;;;;;;23.33;15.05;;;12.60;99.90;;;;;;4935557;29;20150;-81
2022/10/29 08:00:49;;;;;;;20.45;13.88;;;12.60;99.90;;;;;;4953167;29;20130;-82
2022/10/29 08:03:15;;;;;;;24.77;14.25;;;12.70;99.90;;;;;;4936940;29;20035;-80
2022/10/29 08:05:41;;;;;;;22.50;15.25;;;12.70;99.90;;;;;;4954188;28;20046;-81
2022/10/29 08:08:07;;;;;;;20.10;14.05;;;13.10;99.90;;;;;;4953598;28;20556;-83
2022/10/29 08:10:34;;;;;;;20.35;14.52;;;12.80;99.90;;;;;;4953052;29;20055;-82
2022/10/29 08:13:02;;;;;;;25.73;14.45;;;12.80;99.90;;;;;;4951872;29;20130;-82
2022/10/29 08:15:30;;;;;;;21.98;14.30;;;12.90;99.90;;;;;;4936427;29;20105;-82
2022/10/29 08:17:56;;;;;;;23.48;15.45;;;13.30;99.90;;;;;;4953974;28;20134;-82
2022/10/29 08:20:24;;;;;;;23.50;13.98;;;13.00;99.90;;;;;;4938891;28;20115;-82
2022/10/29 08:22:49;;;;;;;23.60;14.82;;;13.00;99.90;;;;;;4970033;28;20051;-82
2022/10/29 08:25:16;;;;;;;27.23;15.30;;;13.20;99.90;;;;;;4971706;28;20065;-82
2022/10/29 08:27:42;;;;;;;27.25;14.20;;;13.10;99.90;;;;;;4971056;28;20054;-82
2022/10/29 08:30:10;;;;;;;22.35;14.35;;;13.20;99.90;;;;;;4972124;28;20125;-82
2022/10/29 08:32:43;;;;;;;31.08;13.07;;;13.30;99.90;;;;;;4972883;28;20038;-82
2022/10/29 08:35:08;;;;;;;20.35;13.10;;;13.40;99.90;;;;;;4972913;28;20047;-82
2022/10/29 08:37:34;;;;;;;24.65;14.63;;;13.40;99.90;;;;;;4970579;28;20062;-82
2022/10/29 08:39:59;;;;;;;25.23;14.70;;;13.50;99.90;;;;;;4970835;28;20094;-82
2022/10/29 08:42:31;;;;;;;23.95;13.85;;;13.70;99.90;;;;;;4971268;28;20105;-82
2022/10/29 08:45:21;;;;;;;28.27;14.40;;;13.70;99.90;;;;;;4970730;28;20078;-82
2022/10/29 08:48:04;;;;;;;23.73;13.45;;;13.80;99.90;;;;;;4970758;28;20633;-82
2022/10/29 08:50:39;;;;;;;21.30;14.38;;;13.90;99.90;;;;;;4971440;28;20039;-82
2022/10/29 08:53:15;;;;;;;24.02;14.32;;;14.00;99.90;;;;;;4971068;28;20062;-82
2022/10/29 08:55:46;;;;;;;27.10;14.00;;;14.10;99.90;;;;;;4972062;28;20438;-82
2022/10/29 08:58:34;;;;;;;25.73;13.87;;;14.10;99.90;;;;;;4972150;28;20050;-82
2022/10/29 09:00:59;;;;;;;26.98;14.68;;;14.30;99.90;;;;;;4965950;28;20791;-82
2022/10/29 09:03:28;;;;;;;27.02;13.38;;;14.40;99.90;;;;;;4935839;29;20047;-82
2022/10/29 09:05:57;;;;;;;25.48;14.93;;;14.60;99.90;;;;;;4951769;29;20054;-83
2022/10/29 09:08:36;;;;;;;31.52;13.77;;;14.70;99.90;;;;;;4951316;28;20390;-82
2022/10/29 09:11:18;;;;;;;21.20;13.48;;;14.70;99.90;;;;;;4951317;29;20552;-82
2022/10/29 09:14:09;;;;;;;21.83;14.13;;;14.80;99.90;;;;;;4951639;28;20742;-82
2022/10/29 09:16:58;;;;;;;23.98;14.50;;;14.90;99.90;;;;;;4952146;28;20090;-83
2022/10/29 09:19:27;;;;;;;24.77;13.93;;;15.00;99.90;;;;;;4935580;29;20591;-83
2022/10/29 09:22:21;;;;;;;24.55;13.52;;;15.10;99.90;;;;;;4935134;29;20082;-83
2022/10/29 09:25:13;;;;;;;20.98;13.75;;;15.20;99.90;;;;;;4952427;28;20043;-83
2022/10/29 09:28:13;;;;;;;21.40;13.85;;;15.30;99.90;;;;;;4950282;29;20212;-82
2022/10/29 09:31:12;;;;;;;22.10;14.00;;;15.50;99.90;;;;;;4951494;28;20126;-83
2022/10/29 09:33:38;;;;;;;24.50;13.77;;;15.50;99.90;;;;;;4951301;29;20054;-83
2022/10/29 09:36:13;;;;;;;25.70;13.27;;;15.60;99.90;;;;;;4951301;29;20050;-83
2022/10/29 09:38:52;;;;;;;18.80;12.27;;;15.70;99.90;;;;;;4950743;29;20592;-83
2022/10/29 09:41:20;;;;;;;25.25;14.15;;;15.80;99.90;;;;;;4951343;29;20417;-82
2022/10/29 09:44:13;;;;;;;22.35;13.02;;;15.90;99.90;;;;;;4953264;28;20558;-82
2022/10/29 09:46:56;;;;;;;21.38;13.07;;;15.90;99.90;;;;;;4962684;28;20047;-82
2022/10/29 09:49:28;;;;;;;18.48;11.90;;;16.00;99.90;;;;;;4969723;28;20489;-82
2022/10/29 09:52:30;;;;;;;20.93;12.40;;;16.10;99.90;;;;;;4970326;28;20129;-83
2022/10/29 09:55:01;;;;;;;21.20;12.88;;;16.20;99.90;;;;;;4967274;28;20074;-83
2022/10/29 09:57:45;;;;;;;25.77;13.05;;;16.30;99.90;;;;;;4969668;28;20066;-82
2022/10/29 10:00:29;;;;;;;18.30;10.88;;;16.50;99.90;;;;;;4969705;28;20051;-82
2022/10/29 10:03:44;;;;;;;;;;;;;;;;;;;;;
2022/10/29 10:06:16;;;;;;;19.63;11.00;;;16.70;99.90;;;;;;4950610;29;20121;-83
2022/10/29 10:09:31;;;;;;;;;;;;;;;;;;;;;
2022/10/29 10:11:58;;;;;;;20.13;9.73;;;16.80;99.90;;;;;;4950736;28;20055;-82
2022/10/29 10:15:09;;;;;;;18.10;10.75;;;16.90;99.90;;;;;;4938159;28;20105;-82
2022/10/29 10:17:57;;;;;;;19.60;10.55;;;16.90;99.90;;;;;;4958955;28;20062;-82
2022/10/29 10:20:43;;;;;;;15.82;9.75;;;17.00;99.90;;;;;;4968209;28;20049;-83
2022/10/29 10:23:26;;;;;;;18.60;10.68;;;17.10;99.90;;;;;;4959499;28;20058;-81
2022/10/29 10:25:56;;;;;;;18.52;10.57;;;17.20;99.90;;;;;;4966374;28;20062;-81
2022/10/29 10:28:29;;;;;;;19.42;11.68;;;17.30;99.90;;;;;;4964273;28;20466;-81
2022/10/29 10:31:15;;;;;;;20.63;11.15;;;17.40;99.90;;;;;;4967465;28;21010;-82
2022/10/29 10:33:56;;;;;;;20.27;11.27;;;17.50;99.90;;;;;;4937540;29;20054;-82
2022/10/29 10:36:27;;;;;;;21.27;10.85;;;17.60;99.90;;;;;;4967598;28;20047;-82
2022/10/29 10:38:55;;;;;;;21.17;11.95;;;17.70;99.90;;;;;;4970145;28;21363;-82
2022/10/29 10:41:36;;;;;;;18.02;11.20;;;17.80;99.90;;;;;;4969017;28;20046;-82
2022/10/29 10:44:04;;;;;;;18.95;11.07;;;17.90;99.90;;;;;;4968660;28;20126;-82
2022/10/29 10:46:48;;;;;;;22.30;11.05;;;18.30;99.90;;;;;;4943863;28;20050;-82
2022/10/29 10:49:19;;;;;;;20.65;10.68;;;18.10;99.90;;;;;;4961911;28;20114;-82
2022/10/29 10:51:51;;;;;;;23.60;10.80;;;18.20;99.90;;;;;;4964945;28;20047;-81
2022/10/29 10:54:20;;;;;;;;;;;18.20;99.90;;;;;;4968472;28;20066;-81
2022/10/29 10:56:56;;;;;;;20.85;11.20;;;18.30;99.90;;;;;;4962630;28;19926;-81
2022/10/29 10:59:25;;;;;;;20.77;11.25;;;18.50;99.90;;;;;;4966613;28;20089;-82
2022/10/29 11:01:52;;;;;;;17.23;11.02;;;18.20;99.90;;;;;;4951216;28;20430;-81
2022/10/29 11:04:26;;;;;;;18.30;11.20;;;18.10;99.90;;;;;;4956431;28;20039;-81
2022/10/29 11:06:54;;;;;;;19.90;10.13;;;18.40;99.90;;;;;;4966462;28;20417;-82
2022/10/29 11:09:22;;;;;;;20.02;10.43;;;18.10;99.90;;;;;;4967648;28;20101;-82
2022/10/29 11:12:07;;;;;;;18.60;10.93;;;18.20;99.90;;;;;;4952358;28;20050;-81
2022/10/29 11:15:06;;;;;;;21.52;11.02;;;18.10;99.90;;;;;;4964860;28;20185;-81
2022/10/29 11:18:03;;;;;;;17.70;10.52;;;18.10;99.90;;;;;;4961363;28;20509;-82
2022/10/29 11:20:34;;;;;;;23.50;11.18;;;18.20;99.90;;;;;;4963466;28;20055;-81
2022/10/29 11:23:34;;;;;;;24.80;12.30;;;18.20;99.90;;;;;;4950700;29;20050;-82
2022/10/29 11:26:12;;;;;;;22.30;11.30;;;18.30;99.90;;;;;;4954090;28;20130;-81
2022/10/29 11:28:44;;;;;;;17.10;11.10;;;18.40;99.90;;;;;;4949174;29;20383;-81
2022/10/29 11:31:33;;;;;;;26.27;13.02;;;18.50;99.90;;;;;;4953673;28;20103;-82
2022/10/29 11:34:10;;;;;;;21.80;11.13;;;18.60;99.90;;;;;;4927690;29;20142;-82
2022/10/29 11:36:44;;;;;;;19.50;10.65;;;18.70;99.90;;;;;;4954069;28;20047;-82
2022/10/29 11:39:24;;;;;;;23.85;11.32;;;18.80;99.90;;;;;;4965661;28;20045;-82
2022/10/29 11:42:00;;;;;;;18.52;10.20;;;18.90;99.90;;;;;;4968867;28;20050;-81
2022/10/29 11:44:28;;;;;;;17.35;9.95;;;18.90;99.90;;;;;;4968978;28;20058;-82
2022/10/29 11:47:27;;;;;;;20.63;10.63;;;18.90;99.90;;;;;;4958234;28;20043;-81
2022/10/29 11:49:52;;;;;;;21.33;10.55;;;18.90;99.90;;;;;;4950272;28;20131;-82
2022/10/29 11:52:46;;;;;;;22.05;10.88;;;18.90;99.90;;;;;;4950274;28;20122;-82
2022/10/29 11:55:27;;;;;;;22.45;10.45;;;19.00;99.90;;;;;;4948739;29;20051;-82
2022/10/29 11:58:42;;;;;;;17.83;11.52;;;19.10;99.90;;;;;;4936350;29;20063;-81
2022/10/29 12:01:38;;;;;;;19.25;10.90;;;19.30;99.90;;;;;;4931877;29;20059;-82
2022/10/29 12:04:18;;;;;;;20.85;11.00;;;19.40;99.90;;;;;;4950841;28;20043;-81
2022/10/29 12:07:25;;;;;;;19.10;10.40;;;19.50;99.90;;;;;;4949929;28;20082;-81
2022/10/29 12:10:27;;;;;;;23.13;10.63;;;19.60;99.90;;;;;;4948050;29;20106;-81
2022/10/29 12:13:37;;;;;;;23.70;10.90;;;19.60;99.90;;;;;;4948210;29;20086;-81
2022/10/29 12:16:43;;;;;;;19.15;10.75;;;19.60;99.90;;;;;;4932638;29;20062;-81
2022/10/29 12:19:34;;;;;;;17.58;11.02;;;19.70;99.90;;;;;;4952499;28;20101;-81
2022/10/29 12:22:33;;;;;;;20.55;10.32;;;19.70;99.90;;;;;;4951055;28;20168;-80
2022/10/29 12:25:01;;;;;;;18.60;10.52;;;19.80;99.90;;;;;;4967665;28;20126;-81
2022/10/29 12:27:44;;;;;;;23.42;11.23;;;19.90;99.90;;;;;;4967498;28;20073;-81
2022/10/29 12:30:14;;;;;;;23.02;11.18;;;20.00;99.90;;;;;;4952102;28;20054;-82
2022/10/29 12:33:03;;;;;;;17.77;10.60;;;20.10;99.90;;;;;;4965534;28;20073;-81
2022/10/29 12:35:32;;;;;;;23.20;10.73;;;20.10;99.90;;;;;;4949391;28;20058;-81
2022/10/29 12:38:36;;;;;;;17.75;10.52;;;20.10;99.90;;;;;;4967109;28;20050;-81
2022/10/29 12:41:21;;;;;;;38.20;11.57;;;19.90;99.90;;;;;;4967733;28;20104;-81
2022/10/29 12:43:48;;;;;;;20.83;10.65;;;19.80;99.90;;;;;;4959800;28;20063;-81
2022/10/29 12:46:32;;;;;;;20.90;11.15;;;19.80;99.90;;;;;;4936254;29;20131;-81
2022/10/29 12:49:19;;;;;;;20.42;10.95;;;19.70;99.90;;;;;;4935857;29;20047;-80
2022/10/29 12:52:00;;;;;;;21.90;10.18;;;19.70;99.90;;;;;;4936060;29;20627;-81
2022/10/29 12:54:45;;;;;;;24.60;10.98;;;19.70;99.90;;;;;;4955182;28;20138;-82
2022/10/29 12:57:11;;;;;;;20.95;11.13;;;19.60;99.90;;;;;;4951466;29;20055;-81
2022/10/29 12:59:37;;;;;;;20.63;10.65;;;19.70;99.90;;;;;;4954981;28;20055;-80
2022/10/29 13:02:33;;;;;;;17.08;11.15;;;19.70;99.90;;;;;;4971102;28;20100;-81
2022/10/29 13:05:08;;;;;;;22.20;10.95;;;19.70;99.90;;;;;;4942543;28;20165;-81